Time;durP1;ratioP1;P1;durP2;ratioP2;P2;SDS_P1;SDS_P2;PMS_P1;PMS_P2;Temp;Humidity;BMP_temperature;BMP_pressure;BME280_temperature;BME280_humidity;BME280_pressure;Samples;Min_cycle;Max_cycle;Signal;HPM_P1;HPM_P2
2023/12/15 00:00:01;;;;;;;4.70;4.30;;;;;;;6.95;100.00;101505.97;5058179;28;20203;-77
2023/12/15 00:02:26;;;;;;;4.77;4.13;;;;;;;6.94;100.00;101511.94;5058138;28;20189;-76
2023/12/15 00:04:52;;;;;;;5.30;4.80;;;;;;;6.93;100.00;101513.63;5053225;28;20184;-77
2023/12/15 00:07:17;;;;;;;5.10;4.63;;;;;;;6.90;100.00;101521.25;5058187;28;20706;-77
2023/12/15 00:09:42;;;;;;;5.17;4.60;;;;;;;6.85;100.00;101526.28;5059720;28;20263;-77
2023/12/15 00:12:08;;;;;;;5.40;4.90;;;;;;;6.88;100.00;101524.63;5057224;28;20246;-76
2023/12/15 00:14:33;;;;;;;5.03;4.63;;;;;;;6.85;100.00;101526.28;5057358;28;20186;-76
2023/12/15 00:16:58;;;;;;;4.53;4.13;;;;;;;6.84;100.00;101526.28;5059484;28;20800;-76
2023/12/15 00:19:24;;;;;;;5.13;4.63;;;;;;;6.84;100.00;101523.69;5059194;28;20559;-78
2023/12/15 00:21:49;;;;;;;5.60;5.03;;;;;;;6.82;100.00;101531.34;5055841;28;20274;-76
2023/12/15 00:24:14;;;;;;;5.90;5.30;;;;;;;6.81;100.00;101531.31;5056990;28;20271;-76
2023/12/15 00:26:40;;;;;;;5.50;5.00;;;;;;;6.77;100.00;101540.69;5060212;28;20856;-76
2023/12/15 00:29:05;;;;;;;5.03;4.50;;;;;;;6.75;100.00;101536.28;5059848;28;20188;-76
2023/12/15 00:31:31;;;;;;;4.93;4.53;;;;;;;6.75;100.00;101537.19;5058240;28;20175;-77
2023/12/15 00:33:56;;;;;;;4.67;4.27;;;;;;;6.79;100.00;101540.69;5057446;28;20187;-76
2023/12/15 00:36:21;;;;;;;4.97;4.50;;;;;;;6.83;100.00;101532.25;5057492;28;20203;-77
2023/12/15 00:38:47;;;;;;;5.07;4.57;;;;;;;6.90;100.00;101547.00;5055880;28;20660;-76
2023/12/15 00:41:12;;;;;;;5.27;4.77;;;;;;;6.91;100.00;101537.59;5057773;28;20196;-76
2023/12/15 00:43:37;;;;;;;5.10;4.70;;;;;;;6.92;100.00;101549.63;5054501;28;20776;-76
2023/12/15 00:46:03;;;;;;;5.17;4.77;;;;;;;6.90;100.00;101557.28;5055965;28;20205;-76
2023/12/15 00:48:28;;;;;;;6.80;4.83;;;;;;;6.90;100.00;101543.56;5057315;28;20187;-75
2023/12/15 00:50:54;;;;;;;4.73;4.33;;;;;;;6.89;100.00;101545.25;5055527;28;20692;-75
2023/12/15 00:53:20;;;;;;;5.33;4.83;;;;;;;6.88;100.00;101563.25;5056380;28;20196;-75
2023/12/15 00:55:45;;;;;;;6.90;5.53;;;;;;;6.88;100.00;101577.00;5056681;28;20203;-76
2023/12/15 00:58:11;;;;;;;5.23;4.73;;;;;;;6.88;100.00;101561.56;5056291;28;20220;-75
2023/12/15 01:00:37;;;;;;;6.13;5.03;;;;;;;6.87;100.00;101562.38;5058666;28;20270;-75
2023/12/15 01:03:02;;;;;;;5.57;5.00;;;;;;;6.86;100.00;101578.66;5061740;28;20183;-75
2023/12/15 01:05:27;;;;;;;6.53;5.57;;;;;;;6.82;100.00;101587.97;5071815;28;20204;-76
2023/12/15 01:07:53;;;;;;;6.07;5.47;;;;;;;6.80;100.00;101581.03;5068640;28;20194;-76
2023/12/15 01:10:19;;;;;;;5.50;5.00;;;;;;;6.76;100.00;101587.81;5060386;28;20183;-75
2023/12/15 01:12:44;;;;;;;5.80;5.30;;;;;;;6.73;100.00;101590.28;5054050;28;20241;-75
2023/12/15 01:15:10;;;;;;;5.73;5.20;;;;;;;6.70;100.00;101600.50;5057257;28;20205;-75
2023/12/15 01:17:35;;;;;;;5.50;5.00;;;;;;;6.68;100.00;101600.47;5056885;28;21136;-75
2023/12/15 01:20:01;;;;;;;5.47;4.93;;;;;;;6.69;100.00;101604.78;5056220;28;20196;-76
2023/12/15 01:22:26;;;;;;;5.23;4.83;;;;;;;6.67;100.00;101610.69;5062467;28;20215;-76
2023/12/15 01:24:51;;;;;;;6.37;5.67;;;;;;;6.66;100.00;101617.56;5061008;28;20208;-75
2023/12/15 01:27:17;;;;;;;5.90;5.40;;;;;;;6.63;100.00;101612.31;5068325;28;20211;-76
2023/12/15 01:29:42;;;;;;;6.87;5.50;;;;;;;6.64;100.00;101611.47;5055040;28;20184;-76
2023/12/15 01:32:07;;;;;;;5.80;5.23;;;;;;;6.64;100.00;101626.91;5058869;28;20301;-76
2023/12/15 01:34:32;;;;;;;5.73;5.23;;;;;;;6.62;100.00;101626.00;5057318;28;20203;-76
2023/12/15 01:36:58;;;;;;;5.73;5.13;;;;;;;6.63;100.00;101638.03;5052321;28;20711;-76
2023/12/15 01:39:23;;;;;;;5.50;5.00;;;;;;;6.63;100.00;101632.03;5057084;28;20284;-76
2023/12/15 01:41:48;;;;;;;5.50;5.00;;;;;;;6.62;100.00;101635.44;5058990;28;20222;-76
2023/12/15 01:44:14;;;;;;;5.30;4.80;;;;;;;6.60;100.00;101640.50;5061278;28;20280;-76
2023/12/15 01:46:39;;;;;;;6.60;5.50;;;;;;;6.61;100.00;101637.13;5055906;28;20706;-75
2023/12/15 01:49:05;;;;;;;6.60;6.00;;;;;;;6.60;100.00;101630.22;5054642;28;20662;-75
2023/12/15 01:51:30;;;;;;;6.03;5.23;;;;;;;6.59;100.00;101630.19;5056496;28;20224;-76
2023/12/15 01:53:55;;;;;;;6.20;5.63;;;;;;;6.56;100.00;101637.00;5054754;28;20187;-76
2023/12/15 01:56:21;;;;;;;6.20;5.60;;;;;;;6.54;100.00;101636.06;5060587;28;20242;-76
2023/12/15 01:58:46;;;;;;;7.17;6.47;;;;;;;6.54;100.00;101640.34;5056648;28;21095;-76
2023/12/15 02:01:11;;;;;;;6.43;5.83;;;;;;;6.51;100.00;101646.25;5060237;28;20720;-76
2023/12/15 02:03:37;;;;;;;7.30;6.60;;;;;;;6.52;100.00;101650.56;5054796;28;20183;-76
2023/12/15 02:06:03;;;;;;;6.77;5.97;;;;;;;6.50;100.00;101644.53;5054820;28;21086;-77
2023/12/15 02:08:28;;;;;;;5.77;5.27;;;;;;;6.49;100.00;101641.91;5058045;28;20233;-77
2023/12/15 02:10:54;;;;;;;7.57;6.77;;;;;;;6.50;100.00;101659.97;5055829;28;20183;-76
2023/12/15 02:13:19;;;;;;;7.27;6.60;;;;;;;6.49;100.00;101662.47;5052915;28;20724;-76
2023/12/15 02:15:44;;;;;;;7.20;6.50;;;;;;;6.47;100.00;101667.59;5056107;28;20207;-77
2023/12/15 02:18:11;;;;;;;6.90;6.20;;;;;;;6.45;100.00;101663.22;5054301;28;20188;-76
2023/12/15 02:20:36;;;;;;;6.90;6.30;;;;;;;6.45;100.00;101666.66;5057274;28;20206;-76
2023/12/15 02:23:01;;;;;;;7.67;6.80;;;;;;;6.46;100.00;101665.84;5051683;28;20673;-76
2023/12/15 02:25:27;;;;;;;6.93;6.33;;;;;;;6.45;100.00;101660.63;5056012;28;20249;-76
2023/12/15 02:27:53;;;;;;;6.87;6.17;;;;;;;6.44;100.00;101670.06;5058747;28;20293;-76
2023/12/15 02:30:18;;;;;;;6.63;5.83;;;;;;;6.42;100.00;101673.44;5058480;28;20851;-76
2023/12/15 02:32:44;;;;;;;7.57;6.87;;;;;;;6.44;100.00;101664.03;5052278;28;20192;-76
2023/12/15 02:35:11;;;;;;;7.57;6.87;;;;;;;6.44;100.00;101670.06;5056410;28;20230;-75
2023/12/15 02:37:37;;;;;;;7.80;7.00;;;;;;;6.45;100.00;101669.25;5057574;28;20200;-77
2023/12/15 02:40:03;;;;;;;7.50;6.70;;;;;;;6.45;100.00;101682.09;5059510;28;20199;-77
2023/12/15 02:42:29;;;;;;;8.33;7.53;;;;;;;6.45;100.00;101676.06;5056592;28;20184;-76
2023/12/15 02:44:54;;;;;;;7.43;6.73;;;;;;;6.43;100.00;101683.75;5057901;28;20194;-75
2023/12/15 02:47:19;;;;;;;8.30;7.50;;;;;;;6.43;100.00;101683.75;5056643;28;20503;-77
2023/12/15 02:49:44;;;;;;;9.30;7.73;;;;;;;6.42;100.00;101682.00;5058239;28;20194;-77
2023/12/15 02:52:10;;;;;;;9.00;8.10;;;;;;;6.41;100.00;101682.81;5058340;28;20665;-77
2023/12/15 02:54:35;;;;;;;8.33;7.53;;;;;;;6.38;100.00;101693.91;5059607;28;20197;-75
2023/12/15 02:57:01;;;;;;;7.67;6.97;;;;;;;6.37;100.00;101697.28;5059252;28;20920;-77
2023/12/15 02:59:26;;;;;;;7.83;7.03;;;;;;;6.36;100.00;101692.06;5053458;28;20196;-77
2023/12/15 03:01:51;;;;;;;9.57;7.93;;;;;;;6.34;100.00;101697.19;5061043;28;20186;-76
2023/12/15 03:04:16;;;;;;;9.57;8.53;;;;;;;6.34;100.00;101688.63;5058206;28;20200;-76
2023/12/15 03:06:42;;;;;;;8.77;7.87;;;;;;;6.31;100.00;101694.50;5059166;28;20221;-77
2023/12/15 03:09:07;;;;;;;9.57;8.57;;;;;;;6.27;100.00;101695.28;5057922;28;20297;-76
2023/12/15 03:11:32;;;;;;;8.73;7.83;;;;;;;6.23;100.00;101698.56;5059782;28;20189;-76
2023/12/15 03:13:58;;;;;;;9.53;8.63;;;;;;;6.25;100.00;101690.06;5053723;28;20614;-76
2023/12/15 03:16:24;;;;;;;11.27;9.13;;;;;;;6.26;100.00;101693.53;5058899;28;20698;-76
2023/12/15 03:18:49;;;;;;;9.17;8.37;;;;;;;6.26;100.00;101698.66;5058259;28;20190;-77
2023/12/15 03:21:15;;;;;;;9.03;8.17;;;;;;;6.23;100.00;101707.13;5058105;28;20238;-76
2023/12/15 03:23:40;;;;;;;9.87;8.93;;;;;;;6.23;100.00;101716.56;5057632;28;20198;-76
2023/12/15 03:26:06;;;;;;;9.33;8.40;;;;;;;6.26;100.00;101714.09;5057292;28;20219;-76
2023/12/15 03:28:31;;;;;;;9.80;8.83;;;;;;;6.28;100.00;101722.69;5053438;28;20214;-77
2023/12/15 03:30:57;;;;;;;10.10;9.10;;;;;;;6.27;100.00;101723.56;5057922;28;20631;-77
2023/12/15 03:33:25;;;;;;;9.87;8.93;;;;;;;6.27;100.00;101714.94;5058705;28;20197;-77
2023/12/15 03:35:50;;;;;;;9.60;8.70;;;;;;;6.29;100.00;101718.44;5057509;28;20208;-75
2023/12/15 03:38:16;;;;;;;10.00;9.10;;;;;;;6.28;100.00;101714.97;5053751;28;20299;-75
2023/12/15 03:40:41;;;;;;;9.87;8.83;;;;;;;6.27;100.00;101713.25;5055438;28;20275;-76
2023/12/15 03:43:06;;;;;;;10.17;9.17;;;;;;;6.29;100.00;101719.31;5059991;28;21877;-78
2023/12/15 03:45:31;;;;;;;10.33;9.30;;;;;;;6.27;100.00;101723.56;5052795;28;20252;-77
2023/12/15 03:47:57;;;;;;;10.37;9.37;;;;;;;6.23;100.00;101717.41;5058419;28;20284;-77
2023/12/15 03:50:23;;;;;;;9.80;8.67;;;;;;;6.23;100.00;101730.25;5059756;28;20195;-77
2023/12/15 03:52:48;;;;;;;10.30;9.23;;;;;;;6.24;100.00;101723.44;5056836;28;20650;-77
2023/12/15 03:55:14;;;;;;;10.43;8.97;;;;;;;6.24;100.00;101723.44;5058151;28;20225;-77
2023/12/15 03:57:39;;;;;;;10.97;9.90;;;;;;;6.24;100.00;101733.72;5057547;28;20192;-77
2023/12/15 04:00:07;;;;;;;11.50;10.40;;;;;;;6.23;100.00;101735.41;5057926;28;20187;-76
2023/12/15 04:02:33;;;;;;;11.07;9.53;;;;;;;6.22;100.00;101735.38;5055849;28;20214;-78
2023/12/15 04:04:58;;;;;;;10.97;9.87;;;;;;;6.24;100.00;101741.44;5057852;28;20231;-77
2023/12/15 04:07:24;;;;;;;11.00;9.83;;;;;;;6.20;100.00;101731.88;5059983;28;20236;-78
2023/12/15 04:09:49;;;;;;;11.17;10.07;;;;;;;6.22;100.00;101737.94;5056730;28;20603;-77
2023/12/15 04:12:14;;;;;;;10.37;9.27;;;;;;;6.19;100.00;101740.41;5053277;28;20661;-77
2023/12/15 04:14:40;;;;;;;10.50;9.20;;;;;;;6.23;100.00;101745.69;5052788;28;20186;-77
2023/12/15 04:17:05;;;;;;;10.67;9.13;;;;;;;6.24;100.00;101751.72;5056551;28;20378;-77
2023/12/15 04:19:31;;;;;;;11.33;10.23;;;;;;;6.25;100.00;101750.91;5056642;28;20785;-77
2023/12/15 04:21:56;;;;;;;10.67;9.50;;;;;;;6.25;100.00;101753.47;5057047;28;20990;-77
2023/12/15 04:24:22;;;;;;;10.60;9.50;;;;;;;6.24;100.00;101768.00;5052575;28;20707;-77
2023/12/15 04:26:47;;;;;;;10.73;9.63;;;;;;;6.25;100.00;101767.19;5054817;28;20630;-77
2023/12/15 04:29:12;;;;;;;11.70;10.50;;;;;;;6.28;100.00;101768.13;5054907;28;20199;-78
2023/12/15 04:31:37;;;;;;;12.57;11.10;;;;;;;6.26;100.00;101773.22;5057853;28;20199;-77
2023/12/15 04:34:03;;;;;;;11.23;10.13;;;;;;;6.28;100.00;101768.13;5059799;28;20748;-77
2023/12/15 04:36:28;;;;;;;11.47;10.27;;;;;;;6.24;100.00;101773.16;5057667;28;20694;-78
2023/12/15 04:38:54;;;;;;;11.93;10.67;;;;;;;6.21;100.00;101775.63;5051422;28;20192;-78
2023/12/15 04:41:21;;;;;;;12.77;11.47;;;;;;;6.25;100.00;101779.19;5055327;28;20260;-77
2023/12/15 04:43:47;;;;;;;12.40;10.87;;;;;;;6.23;100.00;101785.97;5059211;28;20560;-77
2023/12/15 04:46:27;;;;;;;13.17;10.17;;;;;;;6.25;100.00;101785.19;5060395;28;20210;-77
2023/12/15 04:48:54;;;;;;;10.57;9.50;;;;;;;6.22;100.00;101792.78;5055270;28;20183;-78
2023/12/15 04:51:20;;;;;;;12.20;10.93;;;;;;;6.24;100.00;101790.28;5054323;28;20208;-77
2023/12/15 04:53:46;;;;;;;12.23;10.97;;;;;;;6.28;100.00;101802.41;5061693;28;20248;-77
2023/12/15 04:56:12;;;;;;;12.70;10.93;;;;;;;6.28;100.00;101802.41;5064386;28;20962;-78
2023/12/15 04:58:38;;;;;;;13.30;11.73;;;;;;;6.29;100.00;101808.44;5061451;28;20192;-77
2023/12/15 05:01:03;;;;;;;12.10;10.90;;;;;;;6.28;100.00;101814.41;5063965;28;20200;-77
2023/12/15 05:03:30;;;;;;;13.03;11.70;;;;;;;6.26;100.00;101814.34;5057417;28;20204;-78
2023/12/15 05:05:55;;;;;;;12.30;11.10;;;;;;;6.31;100.00;101817.06;5065047;28;20228;-76
2023/12/15 05:08:20;;;;;;;12.73;11.40;;;;;;;6.32;100.00;101816.25;5066595;28;20509;-77
2023/12/15 05:10:46;;;;;;;12.30;11.10;;;;;;;6.29;100.00;101822.16;5062486;28;20222;-78
2023/12/15 05:13:11;;;;;;;12.47;11.27;;;;;;;6.27;100.00;101825.50;5065899;28;20191;-78
2023/12/15 05:15:37;;;;;;;12.03;10.83;;;;;;;6.29;100.00;101832.44;5063160;28;20278;-77
2023/12/15 05:18:03;;;;;;;13.27;11.87;;;;;;;6.30;100.00;101843.59;5062745;28;20196;-77
2023/12/15 05:20:29;;;;;;;12.87;11.57;;;;;;;6.34;100.00;101836.03;5061186;28;20249;-78
2023/12/15 05:22:54;;;;;;;13.47;12.07;;;;;;;6.40;100.00;101843.06;5061025;28;20187;-77
2023/12/15 05:25:19;;;;;;;12.90;11.57;;;;;;;6.39;100.00;101844.78;5063355;28;20292;-78
2023/12/15 05:27:45;;;;;;;12.87;11.63;;;;;;;6.42;100.00;101849.16;5058720;28;20244;-79
2023/12/15 05:30:11;;;;;;;14.03;12.03;;;;;;;6.41;100.00;101862.84;5062817;28;20201;-77
2023/12/15 05:32:37;;;;;;;12.63;11.27;;;;;;;6.41;100.00;101862.84;5063229;28;20723;-77
2023/12/15 05:35:04;;;;;;;11.73;10.57;;;;;;;6.42;100.00;101864.59;5060929;28;20280;-77
2023/12/15 05:37:30;;;;;;;11.57;10.47;;;;;;;6.44;100.00;101862.06;5061625;28;20184;-78
2023/12/15 05:39:57;;;;;;;10.93;9.77;;;;;;;6.44;100.00;101865.50;5063081;28;20218;-76
2023/12/15 05:42:22;;;;;;;12.60;11.30;;;;;;;6.43;100.00;101873.19;5058914;28;20191;-78
2023/12/15 05:44:48;;;;;;;13.43;10.60;;;;;;;6.45;100.00;101874.09;5056792;28;20261;-77
2023/12/15 05:47:13;;;;;;;12.27;10.77;;;;;;;6.39;100.00;101877.34;5062068;28;20207;-78
2023/12/15 05:49:41;;;;;;;12.67;11.37;;;;;;;6.36;100.00;101877.22;5064230;28;20187;-77
2023/12/15 05:52:09;;;;;;;12.00;10.83;;;;;;;6.32;100.00;101878.81;5063426;28;20191;-77
2023/12/15 05:54:35;;;;;;;12.33;11.03;;;;;;;6.30;100.00;101884.75;5061596;28;20213;-78
2023/12/15 05:57:00;;;;;;;11.63;10.47;;;;;;;6.28;100.00;101894.97;5061322;28;20700;-78
2023/12/15 05:59:26;;;;;;;11.93;10.73;;;;;;;6.25;100.00;101900.88;5063828;28;20183;-77
2023/12/15 06:01:51;;;;;;;11.53;10.40;;;;;;;6.27;100.00;101910.34;5062695;28;20184;-77
2023/12/15 06:04:17;;;;;;;11.87;10.67;;;;;;;6.26;100.00;101917.19;5058654;28;20658;-78
2023/12/15 06:06:42;;;;;;;11.43;10.30;;;;;;;6.27;100.00;101915.47;5063875;28;20623;-78
2023/12/15 06:09:09;;;;;;;12.20;10.90;;;;;;;6.28;100.00;101909.53;5065160;28;20625;-78
2023/12/15 06:11:39;;;;;;;12.67;11.40;;;;;;;6.29;100.00;101909.56;5061910;28;20357;-77
2023/12/15 06:14:04;;;;;;;11.57;10.47;;;;;;;6.25;100.00;101916.31;5057869;28;20204;-78
2023/12/15 06:16:30;;;;;;;11.50;10.23;;;;;;;6.22;100.00;101923.91;5063384;28;20577;-77
2023/12/15 06:18:55;;;;;;;11.40;10.30;;;;;;;6.17;100.00;101925.47;5059258;28;20183;-76
2023/12/15 06:21:22;;;;;;;11.47;10.37;;;;;;;6.17;100.00;101928.03;5060191;28;20696;-78
2023/12/15 06:23:47;;;;;;;11.63;10.43;;;;;;;6.20;100.00;101934.97;5063213;28;21023;-77
2023/12/15 06:26:24;;;;;;;11.27;10.17;;;;;;;6.22;100.00;101930.75;5064793;28;20256;-78
2023/12/15 06:28:49;;;;;;;10.97;9.87;;;;;;;6.24;100.00;101937.69;5058751;28;20270;-77
2023/12/15 06:31:15;;;;;;;11.70;10.50;;;;;;;6.26;100.00;101942.91;5059714;28;21029;-77
2023/12/15 06:33:41;;;;;;;11.57;10.37;;;;;;;6.26;100.00;101942.91;5058593;28;20184;-77
2023/12/15 06:36:08;;;;;;;10.80;9.70;;;;;;;6.26;100.00;101940.34;5058368;28;20204;-76
2023/12/15 06:38:35;;;;;;;10.80;9.70;;;;;;;6.28;100.00;101942.94;5057930;28;20217;-77
2023/12/15 06:41:01;;;;;;;10.63;9.53;;;;;;;6.27;100.00;101952.38;5063338;28;20191;-78
2023/12/15 06:43:26;;;;;;;10.40;9.40;;;;;;;6.30;100.00;101951.59;5056077;28;20251;-77
2023/12/15 06:45:52;;;;;;;9.93;8.93;;;;;;;6.32;100.00;101955.09;5065416;28;20220;-77
2023/12/15 06:48:18;;;;;;;12.73;9.77;;;;;;;6.35;100.00;101966.38;5059611;28;20188;-77
2023/12/15 06:50:43;;;;;;;10.87;9.53;;;;;;;6.36;100.00;101970.69;5061190;28;20233;-78
2023/12/15 06:53:08;;;;;;;10.33;9.43;;;;;;;6.36;100.00;101975.84;5061694;28;20605;-76
2023/12/15 06:55:34;;;;;;;9.90;8.90;;;;;;;6.38;100.00;101981.91;5064192;28;20270;-77
2023/12/15 06:58:00;;;;;;;9.30;8.40;;;;;;;6.40;100.00;101974.22;5063999;28;20195;-77
2023/12/15 07:00:25;;;;;;;10.23;9.23;;;;;;;6.43;100.00;101986.34;5065171;28;20730;-78
2023/12/15 07:02:51;;;;;;;9.60;8.70;;;;;;;6.43;100.00;101984.63;5064820;28;20194;-77
2023/12/15 07:05:16;;;;;;;9.33;8.33;;;;;;;6.45;100.00;101990.72;5065469;28;20203;-77
2023/12/15 07:07:41;;;;;;;9.50;8.53;;;;;;;6.47;100.00;101989.06;5063979;28;20216;-77
2023/12/15 07:10:07;;;;;;;10.80;9.40;;;;;;;6.51;100.00;101993.47;5061984;28;20190;-77
2023/12/15 07:12:32;;;;;;;10.63;9.63;;;;;;;6.54;100.00;101993.59;5060494;28;20193;-77
2023/12/15 07:14:58;;;;;;;12.33;11.03;;;;;;;6.55;100.00;102000.50;5056916;28;20194;-77
2023/12/15 07:17:23;;;;;;;11.33;10.23;;;;;;;6.56;100.00;101988.53;5061462;28;20181;-77
2023/12/15 07:19:48;;;;;;;11.57;10.40;;;;;;;6.60;100.00;101998.06;5062100;28;20267;-78
2023/12/15 07:22:14;;;;;;;9.80;8.90;;;;;;;6.56;100.00;102001.38;5062930;28;20191;-78
2023/12/15 07:24:42;;;;;;;10.63;9.60;;;;;;;6.58;100.00;102011.72;5074411;28;20242;-77
2023/12/15 07:27:08;;;;;;;11.67;10.10;;;;;;;6.59;100.00;102014.34;5070939;28;20213;-77
2023/12/15 07:29:33;;;;;;;10.57;9.50;;;;;;;6.60;100.00;102022.94;5061599;28;20563;-77
2023/12/15 07:31:59;;;;;;;10.33;9.40;;;;;;;6.56;100.00;102021.97;5061735;28;20197;-78
2023/12/15 07:34:24;;;;;;;12.57;10.50;;;;;;;6.59;100.00;102031.47;5061337;28;20281;-77
2023/12/15 07:36:49;;;;;;;12.10;10.80;;;;;;;6.58;100.00;102025.44;5063853;28;20211;-77
2023/12/15 07:39:21;;;;;;;11.10;10.00;;;;;;;6.54;100.00;102034.75;5063020;28;20195;-77
2023/12/15 07:41:48;;;;;;;10.70;9.33;;;;;;;6.54;100.00;102037.31;5061077;28;20189;-77
2023/12/15 07:44:14;;;;;;;11.13;10.03;;;;;;;6.59;100.00;102034.91;5061753;28;20279;-78
2023/12/15 07:46:39;;;;;;;12.20;11.00;;;;;;;6.63;100.00;102028.22;5062892;28;20280;-77
2023/12/15 07:49:05;;;;;;;11.97;10.73;;;;;;;6.60;100.00;102028.09;5060151;28;20195;-77
2023/12/15 07:51:30;;;;;;;10.07;9.10;;;;;;;6.58;100.00;102035.72;5059360;28;20228;-77
2023/12/15 07:53:56;;;;;;;10.97;9.40;;;;;;;6.63;100.00;102033.34;5062454;28;20619;-76
2023/12/15 07:56:23;;;;;;;11.57;10.47;;;;;;;6.70;100.00;102041.34;5059631;28;20254;-78
2023/12/15 07:58:52;;;;;;;11.53;10.33;;;;;;;6.77;100.00;102044.09;5062935;28;20290;-77
2023/12/15 08:01:19;;;;;;;10.40;9.50;;;;;;;6.77;100.00;102052.72;5060269;28;20270;-77
2023/12/15 08:03:44;;;;;;;10.63;9.53;;;;;;;6.78;100.00;102051.91;5059783;28;20206;-78
2023/12/15 08:06:15;;;;;;;9.97;9.07;;;;;;;6.82;100.00;102060.59;5060790;28;20607;-77
2023/12/15 08:08:41;;;;;;;9.57;8.67;;;;;;;6.88;100.00;102068.53;5058795;28;20187;-78
2023/12/15 08:11:07;;;;;;;11.27;9.37;;;;;;;6.94;100.00;102067.88;5059755;28;20212;-76
2023/12/15 08:13:32;;;;;;;11.20;10.13;;;;;;;7.01;100.00;102069.81;5060598;28;20211;-77
2023/12/15 08:15:57;;;;;;;10.90;9.80;;;;;;;7.03;100.00;102072.47;5061548;28;20214;-77
2023/12/15 08:18:23;;;;;;;10.27;9.27;;;;;;;7.04;100.00;102069.03;5059649;28;21233;-76
2023/12/15 08:20:48;;;;;;;10.80;9.70;;;;;;;7.02;100.00;102066.44;5056991;28;20190;-77
2023/12/15 08:23:14;;;;;;;10.70;9.60;;;;;;;7.01;100.00;102082.69;5057556;28;20354;-77
2023/12/15 08:25:39;;;;;;;10.67;9.17;;;;;;;7.02;100.00;102087.03;5059324;28;20244;-77
2023/12/15 08:28:05;;;;;;;10.87;9.87;;;;;;;7.00;100.00;102084.41;5061141;28;20229;-78
2023/12/15 08:30:30;;;;;;;11.10;10.00;;;;;;;6.96;100.00;102092.84;5059593;28;20196;-77
2023/12/15 08:32:58;;;;;;;10.77;9.70;;;;;;;6.97;100.00;102101.44;5062044;28;20185;-77
2023/12/15 08:35:23;;;;;;;11.10;10.03;;;;;;;6.95;100.00;102092.81;5061243;28;20198;-76
2023/12/15 08:37:49;;;;;;;10.17;9.17;;;;;;;6.93;100.00;102095.31;5064013;28;20183;-78
2023/12/15 08:40:14;;;;;;;12.03;10.77;;;;;;;6.95;100.00;102098.81;5061961;28;20251;-77
2023/12/15 08:42:39;;;;;;;11.37;10.23;;;;;;;6.94;100.00;102096.19;5058218;28;20219;-77
2023/12/15 08:45:06;;;;;;;10.50;9.40;;;;;;;6.99;100.00;102108.41;5060280;28;20206;-77
2023/12/15 08:47:32;;;;;;;10.80;9.80;;;;;;;7.02;100.00;102107.63;5057698;28;20832;-76
2023/12/15 08:49:57;;;;;;;10.77;9.63;;;;;;;7.08;100.00;102119.81;5060835;28;20191;-77
2023/12/15 08:52:23;;;;;;;10.30;9.20;;;;;;;7.13;100.00;102114.00;5058018;28;20238;-77
2023/12/15 08:54:48;;;;;;;10.43;9.43;;;;;;;7.15;100.00;102116.66;5061962;28;20184;-77
2023/12/15 08:57:13;;;;;;;10.40;9.40;;;;;;;7.17;100.00;102115.03;5063813;28;20207;-78
2023/12/15 08:59:39;;;;;;;10.13;9.13;;;;;;;7.22;100.00;102118.59;5057914;28;20300;-77
2023/12/15 09:02:06;;;;;;;13.50;9.60;;;;;;;7.28;100.00;102123.97;5061453;28;20255;-77
2023/12/15 09:04:32;;;;;;;10.53;9.43;;;;;;;7.30;100.00;102119.75;5058094;28;20194;-77
2023/12/15 09:06:57;;;;;;;10.10;9.20;;;;;;;7.38;100.00;102119.13;5061408;28;20216;-77
2023/12/15 09:09:24;;;;;;;10.07;9.00;;;;;;;7.45;100.00;102121.09;5059128;28;20192;-75
2023/12/15 09:11:50;;;;;;;9.37;8.47;;;;;;;7.53;100.00;102123.94;5057747;28;20180;-78
2023/12/15 09:14:16;;;;;;;10.10;9.10;;;;;;;7.57;100.00;102123.19;5059421;28;20192;-75
2023/12/15 09:16:42;;;;;;;9.10;8.20;;;;;;;7.61;100.00;102137.94;5061697;28;20625;-77
2023/12/15 09:19:08;;;;;;;9.97;8.97;;;;;;;7.66;100.00;102140.66;5059129;28;20198;-77
2023/12/15 09:21:34;;;;;;;9.70;8.73;;;;;;;7.70;100.00;102133.09;5058449;28;20629;-78
2023/12/15 09:23:59;;;;;;;9.00;8.10;;;;;;;7.79;100.00;102142.81;5058285;28;20193;-77
2023/12/15 09:26:25;;;;;;;9.67;8.73;;;;;;;7.85;100.00;102144.72;5058123;28;20201;-77
2023/12/15 09:28:50;;;;;;;9.37;8.47;;;;;;;7.92;100.00;102150.13;5061468;28;20646;-76
2023/12/15 09:31:16;;;;;;;9.40;8.53;;;;;;;8.02;100.00;102151.28;5057773;28;20184;-76
2023/12/15 09:33:41;;;;;;;10.40;9.43;;;;;;;8.14;100.00;102155.09;5061225;28;20212;-77
2023/12/15 09:36:07;;;;;;;9.40;8.60;;;;;;;8.23;100.00;102155.38;5058151;28;20604;-77
2023/12/15 09:38:32;;;;;;;9.73;8.73;;;;;;;8.28;100.00;102151.22;5064271;28;20199;-78
2023/12/15 09:40:58;;;;;;;9.10;8.30;;;;;;;8.32;100.00;102153.06;5065276;28;20193;-76
2023/12/15 09:43:23;;;;;;;10.20;9.20;;;;;;;8.35;100.00;102154.88;5062355;28;20197;-78
2023/12/15 09:45:49;;;;;;;11.17;8.80;;;;;;;8.38;100.00;102153.25;5060729;28;20230;-77
2023/12/15 09:48:17;;;;;;;12.80;8.10;;;;;;;8.43;100.00;102168.88;5061195;28;20292;-77
2023/12/15 09:50:49;;;;;;;8.73;7.90;;;;;;;8.53;100.00;102159.72;5062720;28;20196;-77
2023/12/15 09:53:15;;;;;;;9.03;8.13;;;;;;;8.58;100.00;102165.91;5060644;28;20196;-76
2023/12/15 09:55:41;;;;;;;8.70;7.90;;;;;;;8.62;100.00;102172.03;5063051;28;20206;-77
2023/12/15 09:58:06;;;;;;;9.73;8.50;;;;;;;8.65;100.00;102185.91;5064801;28;20184;-78
2023/12/15 10:00:32;;;;;;;9.53;8.63;;;;;;;8.70;100.00;102180.88;5060072;28;20181;-76
2023/12/15 10:03:00;;;;;;;8.97;8.17;;;;;;;8.80;100.00;102179.44;5057656;28;20206;-77
2023/12/15 10:05:26;;;;;;;9.23;8.00;;;;;;;8.91;100.00;102188.38;5060653;28;20325;-77
2023/12/15 10:07:52;;;;;;;7.77;7.07;;;;;;;8.99;100.00;102188.59;5063173;28;20596;-76
2023/12/15 10:10:18;;;;;;;9.10;8.20;;;;;;;8.99;100.00;102186.88;5059465;28;20186;-77
2023/12/15 10:12:43;;;;;;;8.47;7.57;;;;;;;8.95;100.00;102185.03;5064429;28;20816;-77
2023/12/15 10:15:09;;;;;;;12.57;7.20;;;;;;;8.92;100.00;102191.81;5062076;28;20257;-78
2023/12/15 10:17:35;;;;;;;7.80;7.10;;;;;;;8.91;100.00;102190.97;5064486;28;20182;-77
2023/12/15 10:20:08;;;;;;;8.00;7.10;;;;;;;8.93;100.00;102188.41;5058963;28;20626;-78
2023/12/15 10:22:34;;;;;;;8.27;7.40;;;;;;;8.99;100.00;102198.94;5062917;28;20178;-77
2023/12/15 10:25:00;;;;;;;7.77;7.00;;;;;;;8.99;100.00;102192.03;5062788;28;20739;-77
2023/12/15 10:27:25;;;;;;;7.40;6.70;;;;;;;8.96;100.00;102199.69;5056809;28;20316;-77
2023/12/15 10:29:51;;;;;;;10.90;7.17;;;;;;;8.95;100.00;102187.63;5065349;28;20182;-78
2023/12/15 10:32:16;;;;;;;7.47;6.67;;;;;;;8.95;100.00;102185.03;5064223;28;20186;-77
2023/12/15 10:34:43;;;;;;;7.87;7.03;;;;;;;8.98;100.00;102179.97;5059062;28;20633;-77
2023/12/15 10:37:08;;;;;;;7.00;6.30;;;;;;;9.05;100.00;102180.16;5065313;28;20205;-77
2023/12/15 10:39:33;;;;;;;7.17;5.97;;;;;;;9.10;100.00;102179.44;5065964;28;20178;-78
2023/12/15 10:41:59;;;;;;;6.10;5.60;;;;;;;9.22;100.00;102196.09;5064472;28;20186;-77
2023/12/15 10:44:26;;;;;;;6.47;5.80;;;;;;;9.25;100.00;102184.13;5064750;28;20267;-77
2023/12/15 10:46:53;;;;;;;6.57;5.97;;;;;;;9.26;100.00;102187.59;5067088;28;20217;-77
2023/12/15 10:49:19;;;;;;;6.83;5.80;;;;;;;9.22;100.00;102184.06;5062749;28;20186;-76
2023/12/15 10:51:46;;;;;;;7.13;6.17;;;;;;;9.16;100.00;102183.91;5065829;28;20186;-77
2023/12/15 10:54:15;;;;;;;6.47;5.50;;;;;;;9.18;100.00;102187.41;5064997;28;20212;-77
2023/12/15 10:56:40;;;;;;;6.60;5.90;;;;;;;9.17;100.00;102189.91;5065564;28;20202;-77
2023/12/15 10:59:07;;;;;;;6.73;5.37;;;;;;;9.16;100.00;102186.47;5063984;28;20203;-77
2023/12/15 11:01:34;;;;;;;5.60;5.10;;;;;;;9.19;100.00;102185.69;5063102;28;20182;-77
2023/12/15 11:04:00;;;;;;;5.83;5.23;;;;;;;9.25;100.00;102201.34;5066014;28;20800;-77
2023/12/15 11:06:27;;;;;;;5.90;5.10;;;;;;;9.32;100.00;102200.66;5062867;28;20312;-77
2023/12/15 11:08:53;;;;;;;7.20;4.87;;;;;;;9.38;100.00;102205.13;5062395;28;20640;-78
2023/12/15 11:11:24;;;;;;;6.60;6.07;;;;;;;9.45;100.00;102214.81;5057400;28;20178;-77